sensor_id;sensor_type;location;lat;lon;timestamp;pressure;altitude;pressure_sealevel;temperature;humidity
70027;BME280;57506;50.092;15.804;2023-05-23T00:01:04;98730.78;;;12.87;100.00
70027;BME280;57506;50.092;15.804;2023-05-23T00:03:31;98740.09;;;12.98;100.00
70027;BME280;57506;50.092;15.804;2023-05-23T00:05:57;98733.25;;;12.64;100.00
70027;BME280;57506;50.092;15.804;2023-05-23T00:08:23;98734.00;;;12.46;100.00
70027;BME280;57506;50.092;15.804;2023-05-23T00:10:49;98736.50;;;12.41;100.00
70027;BME280;57506;50.092;15.804;2023-05-23T00:13:15;98732.63;;;12.31;100.00
70027;BME280;57506;50.092;15.804;2023-05-23T00:15:41;98731.81;;;12.23;100.00
70027;BME280;57506;50.092;15.804;2023-05-23T00:18:10;98732.94;;;12.09;100.00
70027;BME280;57506;50.092;15.804;2023-05-23T00:20:37;98732.72;;;12.04;100.00
70027;BME280;57506;50.092;15.804;2023-05-23T00:23:06;98731.72;;;11.99;100.00
70027;BME280;57506;50.092;15.804;2023-05-23T00:25:33;98737.78;;;11.94;100.00
70027;BME280;57506;50.092;15.804;2023-05-23T00:28:00;98740.66;;;11.99;100.00
70027;BME280;57506;50.092;15.804;2023-05-23T00:30:27;98737.34;;;11.97;100.00
70027;BME280;57506;50.092;15.804;2023-05-23T00:32:53;98740.25;;;11.96;100.00
70027;BME280;57506;50.092;15.804;2023-05-23T00:35:19;98736.09;;;11.93;100.00
70027;BME280;57506;50.092;15.804;2023-05-23T00:37:46;98732.78;;;11.91;100.00
70027;BME280;57506;50.092;15.804;2023-05-23T00:40:14;98731.97;;;11.90;100.00
70027;BME280;57506;50.092;15.804;2023-05-23T00:42:40;98725.88;;;12.08;100.00
70027;BME280;57506;50.092;15.804;2023-05-23T00:45:06;98715.47;;;12.50;100.00
70027;BME280;57506;50.092;15.804;2023-05-23T00:47:32;98722.78;;;12.99;100.00
70027;BME280;57506;50.092;15.804;2023-05-23T00:49:58;98725.78;;;13.41;100.00
70027;BME280;57506;50.092;15.804;2023-05-23T00:52:23;98718.72;;;13.58;100.00
70027;BME280;57506;50.092;15.804;2023-05-23T00:54:49;98721.50;;;13.70;100.00
70027;BME280;57506;50.092;15.804;2023-05-23T00:57:15;98717.38;;;13.85;99.77
70027;BME280;57506;50.092;15.804;2023-05-23T00:59:41;98723.22;;;14.00;98.30
70027;BME280;57506;50.092;15.804;2023-05-23T01:02:07;98717.69;;;13.95;99.03
70027;BME280;57506;50.092;15.804;2023-05-23T01:04:34;98715.69;;;14.02;97.43
70027;BME280;57506;50.092;15.804;2023-05-23T01:07:00;98716.38;;;13.98;97.97
70027;BME280;57506;50.092;15.804;2023-05-23T01:09:27;98711.28;;;13.90;98.14
70027;BME280;57506;50.092;15.804;2023-05-23T01:15:08;98709.34;;;13.79;97.12
70027;BME280;57506;50.092;15.804;2023-05-23T01:17:50;98701.22;;;13.79;97.67
70027;BME280;57506;50.092;15.804;2023-05-23T01:20:23;98699.78;;;13.76;98.90
70027;BME280;57506;50.092;15.804;2023-05-23T01:28:14;98681.19;;;13.80;97.50
70027;BME280;57506;50.092;15.804;2023-05-23T01:30:43;98687.56;;;13.85;97.02
70027;BME280;57506;50.092;15.804;2023-05-23T01:33:13;98684.63;;;13.87;96.79
70027;BME280;57506;50.092;15.804;2023-05-23T01:35:41;98682.25;;;13.79;97.86
70027;BME280;57506;50.092;15.804;2023-05-23T01:38:08;98683.81;;;13.86;96.22
70027;BME280;57506;50.092;15.804;2023-05-23T01:40:33;98687.19;;;13.82;97.64
70027;BME280;57506;50.092;15.804;2023-05-23T01:42:59;98674.56;;;13.76;98.00
70027;BME280;57506;50.092;15.804;2023-05-23T01:45:26;98677.28;;;13.76;97.70
70027;BME280;57506;50.092;15.804;2023-05-23T01:47:52;98678.28;;;13.63;99.01
70027;BME280;57506;50.092;15.804;2023-05-23T01:50:18;98672.53;;;13.71;96.59
70027;BME280;57506;50.092;15.804;2023-05-23T01:52:45;98667.66;;;13.61;98.23
70027;BME280;57506;50.092;15.804;2023-05-23T01:55:12;98667.88;;;13.42;100.00
70027;BME280;57506;50.092;15.804;2023-05-23T01:57:40;98673.78;;;13.32;99.73
70027;BME280;57506;50.092;15.804;2023-05-23T02:00:06;98674.19;;;13.36;100.00
70027;BME280;57506;50.092;15.804;2023-05-23T02:02:35;98675.81;;;13.18;99.91
70027;BME280;57506;50.092;15.804;2023-05-23T02:05:00;98672.75;;;13.15;99.99
70027;BME280;57506;50.092;15.804;2023-05-23T02:07:26;98667.59;;;13.07;100.00
70027;BME280;57506;50.092;15.804;2023-05-23T02:09:52;98667.50;;;12.95;100.00
70027;BME280;57506;50.092;15.804;2023-05-23T02:12:17;98662.56;;;12.85;100.00
70027;BME280;57506;50.092;15.804;2023-05-23T02:14:43;98655.00;;;12.69;100.00
70027;BME280;57506;50.092;15.804;2023-05-23T02:17:08;98649.53;;;12.51;100.00
70027;BME280;57506;50.092;15.804;2023-05-23T02:19:37;98657.31;;;12.41;100.00
70027;BME280;57506;50.092;15.804;2023-05-23T02:22:02;98656.97;;;12.31;100.00
70027;BME280;57506;50.092;15.804;2023-05-23T02:24:28;98651.19;;;12.20;100.00
70027;BME280;57506;50.092;15.804;2023-05-23T02:26:54;98651.91;;;12.09;100.00
70027;BME280;57506;50.092;15.804;2023-05-23T02:29:19;98646.75;;;12.01;100.00
70027;BME280;57506;50.092;15.804;2023-05-23T02:31:45;98644.94;;;11.88;100.00
70027;BME280;57506;50.092;15.804;2023-05-23T02:34:10;98638.75;;;11.81;100.00
70027;BME280;57506;50.092;15.804;2023-05-23T02:36:36;98646.44;;;11.78;100.00
70027;BME280;57506;50.092;15.804;2023-05-23T02:39:02;98641.88;;;11.72;100.00
70027;BME280;57506;50.092;15.804;2023-05-23T02:41:29;98639.00;;;11.67;100.00
70027;BME280;57506;50.092;15.804;2023-05-23T02:43:54;98646.44;;;11.71;100.00
70027;BME280;57506;50.092;15.804;2023-05-23T02:46:20;98643.31;;;11.74;100.00
70027;BME280;57506;50.092;15.804;2023-05-23T02:48:45;98636.69;;;11.77;100.00
70027;BME280;57506;50.092;15.804;2023-05-23T02:51:11;98637.31;;;11.79;100.00
70027;BME280;57506;50.092;15.804;2023-05-23T02:53:38;98635.22;;;11.81;100.00
70027;BME280;57506;50.092;15.804;2023-05-23T02:56:04;98636.06;;;11.81;100.00
70027;BME280;57506;50.092;15.804;2023-05-23T02:58:30;98627.34;;;11.79;100.00
70027;BME280;57506;50.092;15.804;2023-05-23T03:00:56;98635.41;;;11.86;100.00
70027;BME280;57506;50.092;15.804;2023-05-23T03:03:21;98631.84;;;11.92;100.00
70027;BME280;57506;50.092;15.804;2023-05-23T03:05:47;98634.72;;;11.97;100.00
70027;BME280;57506;50.092;15.804;2023-05-23T03:08:13;98642.41;;;12.00;100.00
70027;BME280;57506;50.092;15.804;2023-05-23T03:10:38;98640.91;;;12.04;100.00
70027;BME280;57506;50.092;15.804;2023-05-23T03:13:04;98643.25;;;12.01;100.00
70027;BME280;57506;50.092;15.804;2023-05-23T03:15:29;98650.00;;;12.16;100.00
70027;BME280;57506;50.092;15.804;2023-05-23T03:17:55;98648.25;;;12.29;100.00
70027;BME280;57506;50.092;15.804;2023-05-23T03:20:20;98656.66;;;12.45;100.00
70027;BME280;57506;50.092;15.804;2023-05-23T03:22:46;98664.69;;;12.52;100.00
70027;BME280;57506;50.092;15.804;2023-05-23T03:25:14;98664.44;;;12.60;100.00
70027;BME280;57506;50.092;15.804;2023-05-23T03:27:40;98659.97;;;12.72;100.00
70027;BME280;57506;50.092;15.804;2023-05-23T03:30:06;98661.13;;;12.83;100.00
70027;BME280;57506;50.092;15.804;2023-05-23T03:32:32;98666.78;;;13.00;100.00
70027;BME280;57506;50.092;15.804;2023-05-23T03:34:57;98643.84;;;13.09;100.00
70027;BME280;57506;50.092;15.804;2023-05-23T03:37:23;98642.69;;;13.23;100.00
70027;BME280;57506;50.092;15.804;2023-05-23T03:39:48;98651.19;;;13.45;100.00
70027;BME280;57506;50.092;15.804;2023-05-23T03:42:14;98656.22;;;13.59;100.00
70027;BME280;57506;50.092;15.804;2023-05-23T03:44:39;98652.22;;;13.80;100.00
70027;BME280;57506;50.092;15.804;2023-05-23T03:47:05;98643.56;;;13.90;100.00
70027;BME280;57506;50.092;15.804;2023-05-23T03:49:31;98632.75;;;14.01;100.00
70027;BME280;57506;50.092;15.804;2023-05-23T03:51:56;98642.50;;;14.21;100.00
70027;BME280;57506;50.092;15.804;2023-05-23T03:54:22;98643.59;;;14.31;100.00
70027;BME280;57506;50.092;15.804;2023-05-23T03:56:47;98637.66;;;14.41;100.00
70027;BME280;57506;50.092;15.804;2023-05-23T03:59:13;98632.63;;;14.56;100.00
70027;BME280;57506;50.092;15.804;2023-05-23T04:01:38;98631.94;;;14.61;100.00
70027;BME280;57506;50.092;15.804;2023-05-23T04:04:04;98626.88;;;14.76;100.00
70027;BME280;57506;50.092;15.804;2023-05-23T04:06:29;98636.16;;;14.80;99.50
70027;BME280;57506;50.092;15.804;2023-05-23T04:08:56;98633.13;;;14.88;98.61
70027;BME280;57506;50.092;15.804;2023-05-23T04:11:21;98622.03;;;15.01;100.00
70027;BME280;57506;50.092;15.804;2023-05-23T04:13:48;98633.00;;;15.07;100.00
70027;BME280;57506;50.092;15.804;2023-05-23T04:16:13;98630.16;;;15.01;100.00
70027;BME280;57506;50.092;15.804;2023-05-23T04:18:39;98627.94;;;14.87;100.00
70027;BME280;57506;50.092;15.804;2023-05-23T04:21:04;98634.19;;;14.76;99.44
70027;BME280;57506;50.092;15.804;2023-05-23T04:23:30;98634.41;;;14.74;100.00
70027;BME280;57506;50.092;15.804;2023-05-23T04:25:56;98633.34;;;14.75;100.00
70027;BME280;57506;50.092;15.804;2023-05-23T04:28:22;98635.69;;;14.72;100.00
70027;BME280;57506;50.092;15.804;2023-05-23T04:30:48;98646.19;;;14.80;100.00
70027;BME280;57506;50.092;15.804;2023-05-23T04:33:16;98643.97;;;14.88;100.00
70027;BME280;57506;50.092;15.804;2023-05-23T04:35:42;98661.69;;;14.91;100.00
70027;BME280;57506;50.092;15.804;2023-05-23T04:38:08;98659.53;;;14.81;100.00
70027;BME280;57506;50.092;15.804;2023-05-23T04:40:34;98657.03;;;14.80;100.00
70027;BME280;57506;50.092;15.804;2023-05-23T04:43:00;98664.34;;;14.79;100.00
70027;BME280;57506;50.092;15.804;2023-05-23T04:45:26;98660.13;;;14.83;100.00
70027;BME280;57506;50.092;15.804;2023-05-23T04:47:52;98665.31;;;14.85;100.00
70027;BME280;57506;50.092;15.804;2023-05-23T04:50:21;98651.16;;;14.94;100.00
70027;BME280;57506;50.092;15.804;2023-05-23T04:52:47;98654.13;;;15.04;100.00
70027;BME280;57506;50.092;15.804;2023-05-23T04:55:12;98646.22;;;15.15;100.00
70027;BME280;57506;50.092;15.804;2023-05-23T04:57:38;98643.97;;;15.35;94.74
70027;BME280;57506;50.092;15.804;2023-05-23T05:00:04;98636.16;;;15.50;95.10
70027;BME280;57506;50.092;15.804;2023-05-23T05:02:35;98633.59;;;15.55;97.69
70027;BME280;57506;50.092;15.804;2023-05-23T05:05:01;98637.31;;;15.66;100.00
70027;BME280;57506;50.092;15.804;2023-05-23T05:07:27;98646.06;;;15.68;98.39
70027;BME280;57506;50.092;15.804;2023-05-23T05:09:53;98642.75;;;15.66;97.49
70027;BME280;57506;50.092;15.804;2023-05-23T05:12:19;98647.00;;;15.62;97.00
70027;BME280;57506;50.092;15.804;2023-05-23T05:14:45;98649.72;;;15.62;98.71
70027;BME280;57506;50.092;15.804;2023-05-23T05:17:10;98653.00;;;15.75;97.73
70027;BME280;57506;50.092;15.804;2023-05-23T05:19:37;98642.84;;;15.83;98.32
70027;BME280;57506;50.092;15.804;2023-05-23T05:22:02;98654.09;;;16.03;97.45
70027;BME280;57506;50.092;15.804;2023-05-23T05:24:28;98649.88;;;16.24;95.47
70027;BME280;57506;50.092;15.804;2023-05-23T05:26:54;98648.75;;;16.36;96.32
70027;BME280;57506;50.092;15.804;2023-05-23T05:29:20;98660.22;;;16.38;92.90
70027;BME280;57506;50.092;15.804;2023-05-23T05:31:45;98655.50;;;16.34;89.73
70027;BME280;57506;50.092;15.804;2023-05-23T05:34:11;98652.00;;;16.50;92.62
70027;BME280;57506;50.092;15.804;2023-05-23T05:36:37;98645.44;;;16.63;88.65
70027;BME280;57506;50.092;15.804;2023-05-23T05:39:10;98650.31;;;16.94;87.38
70027;BME280;57506;50.092;15.804;2023-05-23T05:41:36;98634.69;;;17.06;88.66
70027;BME280;57506;50.092;15.804;2023-05-23T05:44:01;98629.66;;;17.32;86.30
70027;BME280;57506;50.092;15.804;2023-05-23T05:46:27;98620.59;;;17.65;83.29
70027;BME280;57506;50.092;15.804;2023-05-23T05:48:52;98619.88;;;18.23;81.26
70027;BME280;57506;50.092;15.804;2023-05-23T05:51:17;98614.91;;;18.15;80.41
70027;BME280;57506;50.092;15.804;2023-05-23T05:53:43;98617.31;;;18.11;80.35
70027;BME280;57506;50.092;15.804;2023-05-23T05:56:08;98616.53;;;18.16;79.33
70027;BME280;57506;50.092;15.804;2023-05-23T05:58:34;98593.25;;;18.35;81.08
70027;BME280;57506;50.092;15.804;2023-05-23T06:01:00;98601.19;;;18.37;81.72
70027;BME280;57506;50.092;15.804;2023-05-23T06:03:25;98595.91;;;18.57;82.27
70027;BME280;57506;50.092;15.804;2023-05-23T06:05:51;98588.06;;;18.61;79.80
70027;BME280;57506;50.092;15.804;2023-05-23T06:08:17;98594.50;;;18.49;78.69
70027;BME280;57506;50.092;15.804;2023-05-23T06:10:42;98594.09;;;18.63;77.61
70027;BME280;57506;50.092;15.804;2023-05-23T06:13:08;98592.44;;;18.62;76.02
70027;BME280;57506;50.092;15.804;2023-05-23T06:15:33;98596.25;;;18.61;79.28
70027;BME280;57506;50.092;15.804;2023-05-23T06:17:59;98597.63;;;18.36;80.93
70027;BME280;57506;50.092;15.804;2023-05-23T06:20:24;98597.78;;;18.25;84.08
70027;BME280;57506;50.092;15.804;2023-05-23T06:22:50;98597.47;;;18.21;84.55
70027;BME280;57506;50.092;15.804;2023-05-23T06:25:15;98595.81;;;18.15;82.92
70027;BME280;57506;50.092;15.804;2023-05-23T06:27:41;98585.81;;;18.26;81.69
70027;BME280;57506;50.092;15.804;2023-05-23T06:30:07;98590.56;;;18.67;77.52
70027;BME280;57506;50.092;15.804;2023-05-23T06:32:32;98596.81;;;18.63;77.15
70027;BME280;57506;50.092;15.804;2023-05-23T06:34:58;98592.28;;;19.15;77.25
70027;BME280;57506;50.092;15.804;2023-05-23T06:37:24;98594.50;;;19.23;76.12
70027;BME280;57506;50.092;15.804;2023-05-23T06:39:49;98598.59;;;19.63;76.34
70027;BME280;57506;50.092;15.804;2023-05-23T06:42:15;98604.06;;;19.68;79.18
70027;BME280;57506;50.092;15.804;2023-05-23T06:44:40;98605.72;;;19.74;78.16
70027;BME280;57506;50.092;15.804;2023-05-23T06:47:06;98606.13;;;20.08;76.95
70027;BME280;57506;50.092;15.804;2023-05-23T06:49:31;98607.47;;;20.06;75.58
70027;BME280;57506;50.092;15.804;2023-05-23T06:51:57;98623.47;;;20.44;71.47
70027;BME280;57506;50.092;15.804;2023-05-23T06:54:22;98628.41;;;20.93;70.91
70027;BME280;57506;50.092;15.804;2023-05-23T06:56:48;98633.88;;;20.83;66.59
70027;BME280;57506;50.092;15.804;2023-05-23T06:59:14;98632.81;;;20.94;69.02
70027;BME280;57506;50.092;15.804;2023-05-23T07:01:39;98632.25;;;20.72;69.78
70027;BME280;57506;50.092;15.804;2023-05-23T07:04:05;98645.66;;;20.68;70.16
70027;BME280;57506;50.092;15.804;2023-05-23T07:06:30;98656.31;;;20.70;68.75
70027;BME280;57506;50.092;15.804;2023-05-23T07:08:57;98657.97;;;20.71;70.60
70027;BME280;57506;50.092;15.804;2023-05-23T07:11:22;98662.06;;;20.63;70.66
70027;BME280;57506;50.092;15.804;2023-05-23T07:13:48;98652.41;;;20.35;70.52
70027;BME280;57506;50.092;15.804;2023-05-23T07:16:14;98656.56;;;20.43;71.58
70027;BME280;57506;50.092;15.804;2023-05-23T07:18:39;98647.00;;;20.81;69.61
70027;BME280;57506;50.092;15.804;2023-05-23T07:21:05;98651.94;;;20.79;68.89
70027;BME280;57506;50.092;15.804;2023-05-23T07:23:33;98653.03;;;20.98;69.06
70027;BME280;57506;50.092;15.804;2023-05-23T07:26:00;98651.41;;;20.77;69.29
70027;BME280;57506;50.092;15.804;2023-05-23T07:28:27;98658.81;;;20.71;70.46
70027;BME280;57506;50.092;15.804;2023-05-23T07:30:53;98662.34;;;20.72;71.54
70027;BME280;57506;50.092;15.804;2023-05-23T07:33:18;98656.03;;;20.51;70.20
70027;BME280;57506;50.092;15.804;2023-05-23T07:35:45;98656.84;;;20.46;66.92
70027;BME280;57506;50.092;15.804;2023-05-23T07:38:10;98652.13;;;20.26;66.43
70027;BME280;57506;50.092;15.804;2023-05-23T07:40:36;98653.72;;;20.07;69.02
70027;BME280;57506;50.092;15.804;2023-05-23T07:43:03;98650.16;;;20.07;68.57
70027;BME280;57506;50.092;15.804;2023-05-23T07:45:28;98641.91;;;19.97;70.43
70027;BME280;57506;50.092;15.804;2023-05-23T07:47:54;98656.69;;;20.01;72.13
70027;BME280;57506;50.092;15.804;2023-05-23T07:50:20;98655.50;;;19.81;71.69
70027;BME280;57506;50.092;15.804;2023-05-23T07:52:45;98643.75;;;19.76;72.81
70027;BME280;57506;50.092;15.804;2023-05-23T07:55:11;98648.06;;;19.67;72.39
70027;BME280;57506;50.092;15.804;2023-05-23T07:57:36;98648.56;;;19.59;73.58
70027;BME280;57506;50.092;15.804;2023-05-23T08:00:02;98637.75;;;19.37;81.59
70027;BME280;57506;50.092;15.804;2023-05-23T08:02:29;98638.47;;;19.22;89.12
70027;BME280;57506;50.092;15.804;2023-05-23T08:04:55;98632.59;;;18.98;91.24
70027;BME280;57506;50.092;15.804;2023-05-23T08:07:21;98641.50;;;18.88;97.64
70027;BME280;57506;50.092;15.804;2023-05-23T08:09:47;98644.72;;;18.53;100.00
70027;BME280;57506;50.092;15.804;2023-05-23T08:12:12;98648.88;;;18.29;100.00
70027;BME280;57506;50.092;15.804;2023-05-23T08:14:38;98639.78;;;18.24;100.00
70027;BME280;57506;50.092;15.804;2023-05-23T08:17:03;98640.78;;;18.39;100.00
70027;BME280;57506;50.092;15.804;2023-05-23T08:19:29;98640.66;;;18.56;100.00
70027;BME280;57506;50.092;15.804;2023-05-23T08:21:54;98646.88;;;18.51;100.00
70027;BME280;57506;50.092;15.804;2023-05-23T08:24:20;98643.41;;;18.83;100.00
70027;BME280;57506;50.092;15.804;2023-05-23T08:26:46;98648.09;;;18.93;100.00
70027;BME280;57506;50.092;15.804;2023-05-23T08:29:13;98658.09;;;19.14;100.00
70027;BME280;57506;50.092;15.804;2023-05-23T08:31:38;98666.75;;;19.43;98.42
70027;BME280;57506;50.092;15.804;2023-05-23T08:34:04;98672.38;;;19.63;98.37
70027;BME280;57506;50.092;15.804;2023-05-23T08:36:29;98671.31;;;19.64;95.54
70027;BME280;57506;50.092;15.804;2023-05-23T08:38:58;98670.69;;;19.57;91.24
70027;BME280;57506;50.092;15.804;2023-05-23T08:41:24;98671.00;;;19.66;90.00
70027;BME280;57506;50.092;15.804;2023-05-23T08:43:51;98674.22;;;19.52;93.36
70027;BME280;57506;50.092;15.804;2023-05-23T08:46:16;98674.13;;;19.79;93.78
70027;BME280;57506;50.092;15.804;2023-05-23T08:48:43;98676.09;;;19.99;88.61
70027;BME280;57506;50.092;15.804;2023-05-23T08:51:13;98687.97;;;19.68;86.00
70027;BME280;57506;50.092;15.804;2023-05-23T08:53:41;98689.91;;;19.72;86.55
70027;BME280;57506;50.092;15.804;2023-05-23T08:56:11;98684.22;;;19.79;89.17
70027;BME280;57506;50.092;15.804;2023-05-23T08:58:38;98694.34;;;19.41;92.62
70027;BME280;57506;50.092;15.804;2023-05-23T09:01:07;98698.47;;;19.07;91.25
70027;BME280;57506;50.092;15.804;2023-05-23T09:03:35;98688.09;;;18.77;96.22
70027;BME280;57506;50.092;15.804;2023-05-23T09:06:09;98707.28;;;18.82;96.42
70027;BME280;57506;50.092;15.804;2023-05-23T09:08:35;98705.25;;;18.72;96.50
70027;BME280;57506;50.092;15.804;2023-05-23T09:11:05;98702.94;;;18.59;97.21
70027;BME280;57506;50.092;15.804;2023-05-23T09:13:32;98685.97;;;18.84;100.00
70027;BME280;57506;50.092;15.804;2023-05-23T09:18:25;98709.94;;;18.50;100.00
70027;BME280;57506;50.092;15.804;2023-05-23T09:20:51;98710.63;;;18.40;100.00
70027;BME280;57506;50.092;15.804;2023-05-23T09:23:17;98720.13;;;18.38;100.00
70027;BME280;57506;50.092;15.804;2023-05-23T09:25:47;98713.19;;;18.25;100.00
70027;BME280;57506;50.092;15.804;2023-05-23T09:28:12;98717.84;;;18.51;100.00
70027;BME280;57506;50.092;15.804;2023-05-23T09:30:38;98722.28;;;18.58;100.00
70027;BME280;57506;50.092;15.804;2023-05-23T09:33:04;98724.34;;;18.99;100.00
70027;BME280;57506;50.092;15.804;2023-05-23T09:35:30;98725.97;;;18.95;99.59
70027;BME280;57506;50.092;15.804;2023-05-23T09:37:57;98733.16;;;19.06;100.00
70027;BME280;57506;50.092;15.804;2023-05-23T09:40:29;98736.63;;;18.97;100.00
70027;BME280;57506;50.092;15.804;2023-05-23T09:43:03;98736.91;;;19.00;100.00
70027;BME280;57506;50.092;15.804;2023-05-23T09:45:30;98734.78;;;19.07;100.00
70027;BME280;57506;50.092;15.804;2023-05-23T09:47:56;98735.78;;;19.28;100.00
70027;BME280;57506;50.092;15.804;2023-05-23T09:50:23;98731.34;;;19.54;100.00
70027;BME280;57506;50.092;15.804;2023-05-23T09:52:48;98728.19;;;19.72;100.00
70027;BME280;57506;50.092;15.804;2023-05-23T09:55:15;98732.84;;;19.72;100.00
70027;BME280;57506;50.092;15.804;2023-05-23T09:57:42;98731.22;;;19.39;94.08
70027;BME280;57506;50.092;15.804;2023-05-23T10:00:09;98726.78;;;19.28;96.60
70027;BME280;57506;50.092;15.804;2023-05-23T10:03:09;98727.97;;;19.42;94.92
70027;BME280;57506;50.092;15.804;2023-05-23T10:05:48;98727.91;;;19.37;100.00
70027;BME280;57506;50.092;15.804;2023-05-23T10:08:39;98725.69;;;19.61;100.00
70027;BME280;57506;50.092;15.804;2023-05-23T10:13:45;98726.59;;;19.81;100.00
70027;BME280;57506;50.092;15.804;2023-05-23T10:16:18;98724.47;;;19.88;97.08
70027;BME280;57506;50.092;15.804;2023-05-23T10:18:44;98726.75;;;20.07;96.56
70027;BME280;57506;50.092;15.804;2023-05-23T10:21:18;98733.66;;;20.30;95.38
70027;BME280;57506;50.092;15.804;2023-05-23T10:23:49;98727.00;;;20.83;97.94
70027;BME280;57506;50.092;15.804;2023-05-23T10:26:16;98726.19;;;20.98;88.52
70027;BME280;57506;50.092;15.804;2023-05-23T10:28:43;98728.63;;;20.79;84.36
70027;BME280;57506;50.092;15.804;2023-05-23T10:31:10;98726.72;;;20.79;89.08
70027;BME280;57506;50.092;15.804;2023-05-23T10:33:42;98727.53;;;20.85;86.68
70027;BME280;57506;50.092;15.804;2023-05-23T10:36:21;98725.38;;;20.92;87.52
70027;BME280;57506;50.092;15.804;2023-05-23T10:39:31;98716.31;;;20.76;89.03
70027;BME280;57506;50.092;15.804;2023-05-23T10:41:57;98730.75;;;20.51;86.33
70027;BME280;57506;50.092;15.804;2023-05-23T10:44:29;98720.38;;;20.58;91.00
70027;BME280;57506;50.092;15.804;2023-05-23T10:46:59;98722.38;;;20.16;88.37
70027;BME280;57506;50.092;15.804;2023-05-23T10:49:45;98714.84;;;19.81;89.92
70027;BME280;57506;50.092;15.804;2023-05-23T10:52:13;98706.88;;;19.74;91.66
70027;BME280;57506;50.092;15.804;2023-05-23T10:57:09;98703.06;;;19.38;92.05
70027;BME280;57506;50.092;15.804;2023-05-23T10:59:36;98713.22;;;19.43;95.67
70027;BME280;57506;50.092;15.804;2023-05-23T11:02:07;98711.22;;;19.33;95.27
70027;BME280;57506;50.092;15.804;2023-05-23T11:04:35;98712.84;;;19.29;98.58
70027;BME280;57506;50.092;15.804;2023-05-23T11:07:01;98729.63;;;19.43;96.27
70027;BME280;57506;50.092;15.804;2023-05-23T11:09:27;98724.47;;;19.46;97.00
70027;BME280;57506;50.092;15.804;2023-05-23T11:16:55;98735.38;;;19.83;94.11
70027;BME280;57506;50.092;15.804;2023-05-23T11:19:22;98736.91;;;20.16;97.24
70027;BME280;57506;50.092;15.804;2023-05-23T11:24:50;98737.00;;;19.84;94.66
70027;BME280;57506;50.092;15.804;2023-05-23T11:27:47;98728.25;;;19.82;93.11
70027;BME280;57506;50.092;15.804;2023-05-23T11:30:13;98718.44;;;19.86;93.82
70027;BME280;57506;50.092;15.804;2023-05-23T11:32:40;98708.84;;;19.84;94.48
70027;BME280;57506;50.092;15.804;2023-05-23T11:35:08;98717.81;;;19.74;93.26
70027;BME280;57506;50.092;15.804;2023-05-23T11:37:37;98723.84;;;19.76;93.77
70027;BME280;57506;50.092;15.804;2023-05-23T11:42:50;98718.69;;;19.80;95.34
70027;BME280;57506;50.092;15.804;2023-05-23T11:45:18;98729.31;;;19.76;92.89
70027;BME280;57506;50.092;15.804;2023-05-23T11:47:44;98724.94;;;19.75;93.15
70027;BME280;57506;50.092;15.804;2023-05-23T11:50:10;98726.50;;;19.61;93.06
70027;BME280;57506;50.092;15.804;2023-05-23T11:52:35;98730.41;;;19.75;90.85
70027;BME280;57506;50.092;15.804;2023-05-23T11:55:01;98714.94;;;20.01;92.29
70027;BME280;57506;50.092;15.804;2023-05-23T11:57:27;98724.38;;;20.25;90.41
70027;BME280;57506;50.092;15.804;2023-05-23T11:59:52;98721.34;;;20.32;89.43
70027;BME280;57506;50.092;15.804;2023-05-23T12:02:20;98712.16;;;20.64;90.63
70027;BME280;57506;50.092;15.804;2023-05-23T12:04:47;98707.78;;;20.63;87.90
70027;BME280;57506;50.092;15.804;2023-05-23T12:07:13;98702.91;;;20.95;89.75
70027;BME280;57506;50.092;15.804;2023-05-23T12:09:45;98699.59;;;20.68;89.59
70027;BME280;57506;50.092;15.804;2023-05-23T12:12:11;98707.19;;;20.40;90.55
70027;BME280;57506;50.092;15.804;2023-05-23T12:14:37;98707.34;;;20.18;92.95
70027;BME280;57506;50.092;15.804;2023-05-23T12:17:10;98704.94;;;19.70;94.21
70027;BME280;57506;50.092;15.804;2023-05-23T12:19:36;98702.25;;;19.75;94.44
70027;BME280;57506;50.092;15.804;2023-05-23T12:22:05;98703.06;;;19.75;96.53
70027;BME280;57506;50.092;15.804;2023-05-23T12:24:33;98699.47;;;19.70;95.36
70027;BME280;57506;50.092;15.804;2023-05-23T12:27:01;98708.56;;;19.80;97.28
70027;BME280;57506;50.092;15.804;2023-05-23T12:29:31;98706.88;;;19.74;96.98
70027;BME280;57506;50.092;15.804;2023-05-23T12:31:58;98711.00;;;19.82;96.84
70027;BME280;57506;50.092;15.804;2023-05-23T12:34:24;98725.03;;;19.90;96.89
70027;BME280;57506;50.092;15.804;2023-05-23T12:36:57;98720.59;;;19.84;96.03
70027;BME280;57506;50.092;15.804;2023-05-23T12:39:24;98716.28;;;19.99;97.20
70027;BME280;57506;50.092;15.804;2023-05-23T12:41:54;98733.19;;;19.85;97.86
70027;BME280;57506;50.092;15.804;2023-05-23T12:44:20;98723.84;;;19.76;98.44
70027;BME280;57506;50.092;15.804;2023-05-23T12:46:46;98729.53;;;19.70;99.57
70027;BME280;57506;50.092;15.804;2023-05-23T12:49:12;98722.78;;;19.77;99.50
70027;BME280;57506;50.092;15.804;2023-05-23T12:51:38;98734.09;;;20.01;100.00
70027;BME280;57506;50.092;15.804;2023-05-23T12:54:04;98735.50;;;20.14;98.13
70027;BME280;57506;50.092;15.804;2023-05-23T12:56:30;98730.59;;;20.11;96.50
70027;BME280;57506;50.092;15.804;2023-05-23T12:58:56;98738.16;;;20.56;97.45
70027;BME280;57506;50.092;15.804;2023-05-23T13:01:21;98726.69;;;20.64;95.34
70027;BME280;57506;50.092;15.804;2023-05-23T13:03:47;98728.38;;;21.01;90.75
70027;BME280;57506;50.092;15.804;2023-05-23T13:06:13;98724.00;;;21.15;92.51
70027;BME280;57506;50.092;15.804;2023-05-23T13:08:38;98715.50;;;21.11;88.56
70027;BME280;57506;50.092;15.804;2023-05-23T13:11:04;98723.47;;;21.18;86.26